sensor_id;sensor_type;location;lat;lon;timestamp;P1;durP1;ratioP1;P2;durP2;ratioP2
4206;SDS011;2117;47.972;7.830;2022-09-21T03:31:22;2.77;;;1.90;;
4206;SDS011;2117;47.972;7.830;2022-09-21T03:33:48;2.93;;;1.67;;
4206;SDS011;2117;47.972;7.830;2022-09-21T03:36:13;3.40;;;1.67;;
4206;SDS011;2117;47.972;7.830;2022-09-21T03:38:39;6.30;;;2.10;;
4206;SDS011;2117;47.972;7.830;2022-09-21T03:41:05;3.10;;;1.70;;
4206;SDS011;2117;47.972;7.830;2022-09-21T03:43:31;2.93;;;1.60;;
4206;SDS011;2117;47.972;7.830;2022-09-21T03:45:57;4.67;;;2.83;;
4206;SDS011;2117;47.972;7.830;2022-09-21T03:48:22;4.30;;;1.80;;
4206;SDS011;2117;47.972;7.830;2022-09-21T03:50:48;2.80;;;1.87;;
4206;SDS011;2117;47.972;7.830;2022-09-21T03:53:15;5.13;;;1.90;;
4206;SDS011;2117;47.972;7.830;2022-09-21T03:55:41;3.57;;;1.93;;
4206;SDS011;2117;47.972;7.830;2022-09-21T03:58:07;3.83;;;2.53;;
4206;SDS011;2117;47.972;7.830;2022-09-21T04:00:33;3.07;;;1.83;;
4206;SDS011;2117;47.972;7.830;2022-09-21T04:02:59;5.40;;;2.37;;
4206;SDS011;2117;47.972;7.830;2022-09-21T04:05:25;4.37;;;2.00;;
4206;SDS011;2117;47.972;7.830;2022-09-21T04:07:52;4.83;;;3.70;;
4206;SDS011;2117;47.972;7.830;2022-09-21T04:10:19;7.63;;;2.40;;
4206;SDS011;2117;47.972;7.830;2022-09-21T04:12:50;9.13;;;1.87;;
4206;SDS011;2117;47.972;7.830;2022-09-21T04:15:17;3.60;;;1.40;;
4206;SDS011;2117;47.972;7.830;2022-09-21T04:17:44;5.57;;;2.07;;
4206;SDS011;2117;47.972;7.830;2022-09-21T04:20:10;4.50;;;2.33;;
4206;SDS011;2117;47.972;7.830;2022-09-21T04:22:36;2.00;;;1.40;;
4206;SDS011;2117;47.972;7.830;2022-09-21T04:25:04;5.97;;;2.23;;
4206;SDS011;2117;47.972;7.830;2022-09-21T04:27:31;2.73;;;2.07;;
4206;SDS011;2117;47.972;7.830;2022-09-21T04:29:57;5.73;;;2.03;;
4206;SDS011;2117;47.972;7.830;2022-09-21T04:32:23;5.00;;;2.10;;
4206;SDS011;2117;47.972;7.830;2022-09-21T04:34:49;7.20;;;1.80;;
4206;SDS011;2117;47.972;7.830;2022-09-21T04:37:15;7.20;;;2.47;;
4206;SDS011;2117;47.972;7.830;2022-09-21T04:39:41;2.93;;;2.17;;
4206;SDS011;2117;47.972;7.830;2022-09-21T04:42:06;3.37;;;1.93;;
4206;SDS011;2117;47.972;7.830;2022-09-21T04:44:33;3.70;;;2.27;;
4206;SDS011;2117;47.972;7.830;2022-09-21T04:46:59;3.53;;;2.60;;
4206;SDS011;2117;47.972;7.830;2022-09-21T04:49:25;3.83;;;2.20;;
4206;SDS011;2117;47.972;7.830;2022-09-21T04:51:50;2.90;;;2.20;;
4206;SDS011;2117;47.972;7.830;2022-09-21T04:54:16;3.00;;;2.20;;
4206;SDS011;2117;47.972;7.830;2022-09-21T04:56:41;5.20;;;2.30;;
4206;SDS011;2117;47.972;7.830;2022-09-21T04:59:07;13.93;;;2.80;;
4206;SDS011;2117;47.972;7.830;2022-09-21T05:01:33;4.90;;;2.80;;
4206;SDS011;2117;47.972;7.830;2022-09-21T05:03:58;7.20;;;2.63;;
4206;SDS011;2117;47.972;7.830;2022-09-21T05:06:26;4.23;;;3.10;;
4206;SDS011;2117;47.972;7.830;2022-09-21T05:08:55;4.83;;;2.80;;
4206;SDS011;2117;47.972;7.830;2022-09-21T05:11:40;6.93;;;2.57;;
4206;SDS011;2117;47.972;7.830;2022-09-21T05:14:05;4.03;;;2.30;;
4206;SDS011;2117;47.972;7.830;2022-09-21T05:16:31;7.30;;;3.67;;
4206;SDS011;2117;47.972;7.830;2022-09-21T05:18:57;5.83;;;2.70;;
4206;SDS011;2117;47.972;7.830;2022-09-21T05:21:23;4.93;;;2.43;;
4206;SDS011;2117;47.972;7.830;2022-09-21T05:23:49;5.50;;;2.97;;
4206;SDS011;2117;47.972;7.830;2022-09-21T05:26:14;3.37;;;2.30;;
4206;SDS011;2117;47.972;7.830;2022-09-21T05:28:40;12.00;;;2.80;;
4206;SDS011;2117;47.972;7.830;2022-09-21T05:39:11;7.87;;;3.90;;
4206;SDS011;2117;47.972;7.830;2022-09-21T05:41:37;7.17;;;3.77;;
4206;SDS011;2117;47.972;7.830;2022-09-21T05:44:03;5.27;;;3.43;;
4206;SDS011;2117;47.972;7.830;2022-09-21T05:49:18;7.00;;;4.87;;
4206;SDS011;2117;47.972;7.830;2022-09-21T05:52:05;6.90;;;3.50;;
4206;SDS011;2117;47.972;7.830;2022-09-21T05:54:43;5.43;;;3.40;;
4206;SDS011;2117;47.972;7.830;2022-09-21T06:00:10;8.37;;;3.60;;
4206;SDS011;2117;47.972;7.830;2022-09-21T06:02:49;6.37;;;4.63;;
4206;SDS011;2117;47.972;7.830;2022-09-21T06:05:37;5.50;;;3.33;;
4206;SDS011;2117;47.972;7.830;2022-09-21T06:08:03;8.77;;;3.90;;
4206;SDS011;2117;47.972;7.830;2022-09-21T06:10:31;7.47;;;3.30;;
4206;SDS011;2117;47.972;7.830;2022-09-21T06:12:58;8.77;;;3.80;;
4206;SDS011;2117;47.972;7.830;2022-09-21T06:15:24;6.80;;;4.47;;
4206;SDS011;2117;47.972;7.830;2022-09-21T06:17:50;6.13;;;4.07;;
4206;SDS011;2117;47.972;7.830;2022-09-21T06:20:15;3.30;;;3.00;;
4206;SDS011;2117;47.972;7.830;2022-09-21T06:22:41;4.27;;;2.80;;
4206;SDS011;2117;47.972;7.830;2022-09-21T06:25:07;5.67;;;3.60;;
4206;SDS011;2117;47.972;7.830;2022-09-21T06:27:33;4.90;;;2.20;;
4206;SDS011;2117;47.972;7.830;2022-09-21T06:29:59;8.40;;;3.57;;
4206;SDS011;2117;47.972;7.830;2022-09-21T06:32:24;4.27;;;3.10;;
4206;SDS011;2117;47.972;7.830;2022-09-21T06:34:50;5.60;;;3.07;;
4206;SDS011;2117;47.972;7.830;2022-09-21T06:37:15;4.63;;;3.10;;
4206;SDS011;2117;47.972;7.830;2022-09-21T06:39:41;4.73;;;2.80;;
4206;SDS011;2117;47.972;7.830;2022-09-21T06:42:06;7.13;;;2.73;;
4206;SDS011;2117;47.972;7.830;2022-09-21T06:44:32;5.77;;;3.17;;
4206;SDS011;2117;47.972;7.830;2022-09-21T06:46:58;7.83;;;2.83;;
4206;SDS011;2117;47.972;7.830;2022-09-21T06:49:23;20.97;;;4.07;;
4206;SDS011;2117;47.972;7.830;2022-09-21T06:51:52;6.40;;;3.27;;
4206;SDS011;2117;47.972;7.830;2022-09-21T06:54:18;4.60;;;2.80;;
4206;SDS011;2117;47.972;7.830;2022-09-21T06:56:44;4.47;;;2.90;;
4206;SDS011;2117;47.972;7.830;2022-09-21T06:59:09;6.03;;;3.10;;
4206;SDS011;2117;47.972;7.830;2022-09-21T07:01:35;7.10;;;4.20;;
4206;SDS011;2117;47.972;7.830;2022-09-21T07:04:01;7.43;;;3.40;;
4206;SDS011;2117;47.972;7.830;2022-09-21T07:06:26;8.00;;;3.97;;
4206;SDS011;2117;47.972;7.830;2022-09-21T07:08:53;8.37;;;4.33;;
4206;SDS011;2117;47.972;7.830;2022-09-21T07:11:19;4.77;;;3.40;;
4206;SDS011;2117;47.972;7.830;2022-09-21T07:13:45;5.60;;;3.53;;
4206;SDS011;2117;47.972;7.830;2022-09-21T07:16:11;4.30;;;3.23;;
4206;SDS011;2117;47.972;7.830;2022-09-21T07:18:38;6.83;;;4.20;;
4206;SDS011;2117;47.972;7.830;2022-09-21T07:21:05;6.30;;;4.00;;
4206;SDS011;2117;47.972;7.830;2022-09-21T07:23:33;21.37;;;5.07;;
4206;SDS011;2117;47.972;7.830;2022-09-21T07:26:03;7.27;;;4.10;;
4206;SDS011;2117;47.972;7.830;2022-09-21T07:28:35;5.60;;;3.47;;
4206;SDS011;2117;47.972;7.830;2022-09-21T07:31:09;9.57;;;4.13;;
4206;SDS011;2117;47.972;7.830;2022-09-21T07:33:36;6.77;;;4.80;;
4206;SDS011;2117;47.972;7.830;2022-09-21T07:36:02;8.20;;;4.30;;
4206;SDS011;2117;47.972;7.830;2022-09-21T07:38:34;6.97;;;4.50;;
4206;SDS011;2117;47.972;7.830;2022-09-21T07:41:01;6.20;;;4.00;;
4206;SDS011;2117;47.972;7.830;2022-09-21T07:43:27;8.57;;;4.13;;
4206;SDS011;2117;47.972;7.830;2022-09-21T07:45:53;5.33;;;3.90;;
4206;SDS011;2117;47.972;7.830;2022-09-21T07:48:22;6.70;;;4.50;;
4206;SDS011;2117;47.972;7.830;2022-09-21T07:50:48;13.17;;;4.67;;
4206;SDS011;2117;47.972;7.830;2022-09-21T07:53:14;8.20;;;3.63;;
4206;SDS011;2117;47.972;7.830;2022-09-21T07:55:43;5.80;;;4.03;;
4206;SDS011;2117;47.972;7.830;2022-09-21T07:58:08;9.37;;;4.90;;
4206;SDS011;2117;47.972;7.830;2022-09-21T08:00:53;12.90;;;4.20;;
4206;SDS011;2117;47.972;7.830;2022-09-21T08:03:18;10.30;;;5.03;;
4206;SDS011;2117;47.972;7.830;2022-09-21T08:05:44;9.73;;;4.57;;
4206;SDS011;2117;47.972;7.830;2022-09-21T08:08:09;7.67;;;4.10;;
4206;SDS011;2117;47.972;7.830;2022-09-21T08:10:35;7.70;;;4.60;;
4206;SDS011;2117;47.972;7.830;2022-09-21T08:13:01;11.97;;;5.53;;
4206;SDS011;2117;47.972;7.830;2022-09-21T08:15:26;10.57;;;4.70;;
4206;SDS011;2117;47.972;7.830;2022-09-21T08:17:52;9.90;;;5.03;;
4206;SDS011;2117;47.972;7.830;2022-09-21T08:20:18;7.43;;;4.30;;
4206;SDS011;2117;47.972;7.830;2022-09-21T08:22:45;7.47;;;4.67;;
4206;SDS011;2117;47.972;7.830;2022-09-21T08:25:11;7.47;;;4.40;;
4206;SDS011;2117;47.972;7.830;2022-09-21T08:27:37;7.53;;;4.70;;
4206;SDS011;2117;47.972;7.830;2022-09-21T08:30:04;7.70;;;5.60;;
4206;SDS011;2117;47.972;7.830;2022-09-21T08:32:31;6.87;;;4.87;;
4206;SDS011;2117;47.972;7.830;2022-09-21T08:34:57;10.20;;;4.77;;
4206;SDS011;2117;47.972;7.830;2022-09-21T08:37:22;10.00;;;5.40;;
4206;SDS011;2117;47.972;7.830;2022-09-21T08:39:48;8.93;;;4.70;;
4206;SDS011;2117;47.972;7.830;2022-09-21T08:42:29;7.33;;;5.00;;
4206;SDS011;2117;47.972;7.830;2022-09-21T08:45:12;12.23;;;5.50;;
4206;SDS011;2117;47.972;7.830;2022-09-21T08:47:51;13.10;;;5.23;;
4206;SDS011;2117;47.972;7.830;2022-09-21T08:53:05;8.83;;;5.47;;
4206;SDS011;2117;47.972;7.830;2022-09-21T08:55:35;9.50;;;5.30;;
4206;SDS011;2117;47.972;7.830;2022-09-21T08:58:01;10.63;;;5.03;;
4206;SDS011;2117;47.972;7.830;2022-09-21T09:00:27;7.13;;;5.40;;
4206;SDS011;2117;47.972;7.830;2022-09-21T09:08:27;5.73;;;4.43;;
4206;SDS011;2117;47.972;7.830;2022-09-21T09:22:26;10.93;;;4.40;;
4206;SDS011;2117;47.972;7.830;2022-09-21T09:24:59;5.57;;;3.97;;
4206;SDS011;2117;47.972;7.830;2022-09-21T09:27:31;6.80;;;4.23;;
4206;SDS011;2117;47.972;7.830;2022-09-21T09:30:21;8.03;;;4.00;;
4206;SDS011;2117;47.972;7.830;2022-09-21T09:32:58;7.50;;;3.57;;
4206;SDS011;2117;47.972;7.830;2022-09-21T09:35:48;12.80;;;4.10;;
4206;SDS011;2117;47.972;7.830;2022-09-21T09:38:23;6.90;;;3.83;;
4206;SDS011;2117;47.972;7.830;2022-09-21T09:46:32;7.10;;;3.60;;
4206;SDS011;2117;47.972;7.830;2022-09-21T09:49:21;5.63;;;3.30;;
4206;SDS011;2117;47.972;7.830;2022-09-21T09:51:50;6.33;;;3.53;;
4206;SDS011;2117;47.972;7.830;2022-09-21T09:54:17;5.13;;;4.00;;
4206;SDS011;2117;47.972;7.830;2022-09-21T09:56:45;5.87;;;2.70;;
4206;SDS011;2117;47.972;7.830;2022-09-21T09:59:14;4.90;;;2.90;;
4206;SDS011;2117;47.972;7.830;2022-09-21T10:02:06;5.70;;;2.87;;
4206;SDS011;2117;47.972;7.830;2022-09-21T10:04:35;4.07;;;3.00;;
4206;SDS011;2117;47.972;7.830;2022-09-21T10:07:17;6.60;;;3.47;;
4206;SDS011;2117;47.972;7.830;2022-09-21T10:09:43;5.87;;;3.87;;
4206;SDS011;2117;47.972;7.830;2022-09-21T10:12:27;6.13;;;2.77;;
4206;SDS011;2117;47.972;7.830;2022-09-21T10:14:55;4.57;;;2.90;;
4206;SDS011;2117;47.972;7.830;2022-09-21T10:17:24;6.43;;;2.63;;
4206;SDS011;2117;47.972;7.830;2022-09-21T10:20:00;5.53;;;3.07;;
4206;SDS011;2117;47.972;7.830;2022-09-21T10:22:28;4.33;;;2.67;;
4206;SDS011;2117;47.972;7.830;2022-09-21T10:24:54;5.87;;;2.93;;
4206;SDS011;2117;47.972;7.830;2022-09-21T10:29:53;5.17;;;2.90;;
4206;SDS011;2117;47.972;7.830;2022-09-21T10:32:20;5.63;;;2.40;;
4206;SDS011;2117;47.972;7.830;2022-09-21T10:37:34;10.20;;;3.00;;
4206;SDS011;2117;47.972;7.830;2022-09-21T10:42:50;3.70;;;2.43;;
4206;SDS011;2117;47.972;7.830;2022-09-21T10:45:19;6.50;;;2.20;;
4206;SDS011;2117;47.972;7.830;2022-09-21T10:50:37;5.60;;;2.23;;
4206;SDS011;2117;47.972;7.830;2022-09-21T10:58:20;3.00;;;1.80;;
4206;SDS011;2117;47.972;7.830;2022-09-21T11:00:46;4.00;;;1.63;;
4206;SDS011;2117;47.972;7.830;2022-09-21T11:06:04;3.40;;;1.50;;
4206;SDS011;2117;47.972;7.830;2022-09-21T11:08:58;3.20;;;1.67;;
4206;SDS011;2117;47.972;7.830;2022-09-21T11:11:41;3.83;;;1.67;;
4206;SDS011;2117;47.972;7.830;2022-09-21T11:16:52;2.20;;;1.60;;
4206;SDS011;2117;47.972;7.830;2022-09-21T11:22:15;4.07;;;1.67;;
4206;SDS011;2117;47.972;7.830;2022-09-21T11:25:18;3.40;;;1.60;;
4206;SDS011;2117;47.972;7.830;2022-09-21T11:27:50;3.83;;;1.27;;
4206;SDS011;2117;47.972;7.830;2022-09-21T11:30:21;3.20;;;1.30;;
4206;SDS011;2117;47.972;7.830;2022-09-21T11:40:58;2.77;;;1.20;;
4206;SDS011;2117;47.972;7.830;2022-09-21T11:54:22;2.63;;;1.60;;
4206;SDS011;2117;47.972;7.830;2022-09-21T11:57:12;2.40;;;1.43;;
4206;SDS011;2117;47.972;7.830;2022-09-21T12:11:19;2.47;;;1.53;;
4206;SDS011;2117;47.972;7.830;2022-09-21T12:19:20;2.80;;;1.57;;
4206;SDS011;2117;47.972;7.830;2022-09-21T12:22:07;2.03;;;1.30;;
4206;SDS011;2117;47.972;7.830;2022-09-21T12:24:43;2.33;;;1.47;;
4206;SDS011;2117;47.972;7.830;2022-09-21T12:27:35;2.20;;;1.20;;
4206;SDS011;2117;47.972;7.830;2022-09-21T12:30:15;2.50;;;1.50;;
4206;SDS011;2117;47.972;7.830;2022-09-21T12:35:41;2.93;;;1.10;;
4206;SDS011;2117;47.972;7.830;2022-09-21T12:40:50;3.50;;;1.47;;
4206;SDS011;2117;47.972;7.830;2022-09-21T12:43:43;2.53;;;1.30;;
4206;SDS011;2117;47.972;7.830;2022-09-21T12:48:49;2.00;;;1.30;;
4206;SDS011;2117;47.972;7.830;2022-09-21T12:51:23;2.30;;;1.50;;
4206;SDS011;2117;47.972;7.830;2022-09-21T12:53:54;2.53;;;1.53;;
4206;SDS011;2117;47.972;7.830;2022-09-21T13:09:48;2.10;;;1.23;;
4206;SDS011;2117;47.972;7.830;2022-09-21T13:12:17;2.13;;;1.50;;
4206;SDS011;2117;47.972;7.830;2022-09-21T13:14:47;2.07;;;1.20;;
4206;SDS011;2117;47.972;7.830;2022-09-21T13:17:20;2.87;;;1.30;;
4206;SDS011;2117;47.972;7.830;2022-09-21T13:19:55;6.60;;;1.20;;
4206;SDS011;2117;47.972;7.830;2022-09-21T13:22:39;2.00;;;1.10;;
4206;SDS011;2117;47.972;7.830;2022-09-21T13:25:06;2.50;;;1.30;;
4206;SDS011;2117;47.972;7.830;2022-09-21T13:27:57;2.60;;;1.50;;
4206;SDS011;2117;47.972;7.830;2022-09-21T13:30:41;1.87;;;1.00;;
4206;SDS011;2117;47.972;7.830;2022-09-21T13:38:24;2.23;;;1.07;;
4206;SDS011;2117;47.972;7.830;2022-09-21T13:49:00;3.73;;;1.27;;
4206;SDS011;2117;47.972;7.830;2022-09-21T13:51:31;2.40;;;1.03;;
4206;SDS011;2117;47.972;7.830;2022-09-21T13:53:57;3.00;;;0.97;;
4206;SDS011;2117;47.972;7.830;2022-09-21T13:56:26;8.00;;;1.37;;
4206;SDS011;2117;47.972;7.830;2022-09-21T13:58:53;2.20;;;1.20;;
4206;SDS011;2117;47.972;7.830;2022-09-21T14:01:31;2.50;;;1.23;;
4206;SDS011;2117;47.972;7.830;2022-09-21T14:03:59;2.30;;;1.10;;
4206;SDS011;2117;47.972;7.830;2022-09-21T14:06:33;2.00;;;0.90;;
4206;SDS011;2117;47.972;7.830;2022-09-21T14:09:07;2.50;;;1.10;;
4206;SDS011;2117;47.972;7.830;2022-09-21T14:12:08;3.07;;;1.20;;
4206;SDS011;2117;47.972;7.830;2022-09-21T14:14:42;2.87;;;1.53;;
4206;SDS011;2117;47.972;7.830;2022-09-21T14:17:35;1.93;;;1.00;;
4206;SDS011;2117;47.972;7.830;2022-09-21T14:20:04;3.33;;;1.40;;
4206;SDS011;2117;47.972;7.830;2022-09-21T14:22:49;2.70;;;1.20;;
4206;SDS011;2117;47.972;7.830;2022-09-21T14:25:51;4.73;;;1.30;;
4206;SDS011;2117;47.972;7.830;2022-09-21T14:28:22;2.93;;;0.90;;
4206;SDS011;2117;47.972;7.830;2022-09-21T14:31:19;2.13;;;1.00;;
4206;SDS011;2117;47.972;7.830;2022-09-21T14:33:51;3.50;;;1.10;;
4206;SDS011;2117;47.972;7.830;2022-09-21T14:36:21;4.43;;;1.10;;
4206;SDS011;2117;47.972;7.830;2022-09-21T14:38:59;3.80;;;1.47;;
4206;SDS011;2117;47.972;7.830;2022-09-21T14:41:29;2.10;;;0.90;;
4206;SDS011;2117;47.972;7.830;2022-09-21T14:44:01;1.77;;;0.90;;
4206;SDS011;2117;47.972;7.830;2022-09-21T14:46:34;2.60;;;1.13;;
4206;SDS011;2117;47.972;7.830;2022-09-21T14:49:13;2.07;;;0.93;;
4206;SDS011;2117;47.972;7.830;2022-09-21T14:54:38;2.10;;;1.17;;
4206;SDS011;2117;47.972;7.830;2022-09-21T15:00:24;1.90;;;0.90;;
4206;SDS011;2117;47.972;7.830;2022-09-21T15:12:44;1.80;;;1.00;;
4206;SDS011;2117;47.972;7.830;2022-09-21T15:15:34;3.03;;;1.27;;
4206;SDS011;2117;47.972;7.830;2022-09-21T15:18:19;2.50;;;1.00;;
4206;SDS011;2117;47.972;7.830;2022-09-21T15:20:55;2.43;;;1.20;;
4206;SDS011;2117;47.972;7.830;2022-09-21T15:23:32;4.80;;;1.00;;
4206;SDS011;2117;47.972;7.830;2022-09-21T15:26:03;1.80;;;1.07;;
4206;SDS011;2117;47.972;7.830;2022-09-21T15:28:34;2.13;;;1.03;;
4206;SDS011;2117;47.972;7.830;2022-09-21T15:31:03;2.40;;;1.20;;
4206;SDS011;2117;47.972;7.830;2022-09-21T15:33:32;2.33;;;0.90;;
4206;SDS011;2117;47.972;7.830;2022-09-21T15:36:01;2.10;;;1.10;;
4206;SDS011;2117;47.972;7.830;2022-09-21T15:38:28;2.13;;;1.10;;
4206;SDS011;2117;47.972;7.830;2022-09-21T15:40:56;1.70;;;0.90;;
4206;SDS011;2117;47.972;7.830;2022-09-21T15:43:22;1.77;;;0.97;;
4206;SDS011;2117;47.972;7.830;2022-09-21T15:48:23;3.10;;;0.93;;
4206;SDS011;2117;47.972;7.830;2022-09-21T15:50:52;2.43;;;1.30;;
4206;SDS011;2117;47.972;7.830;2022-09-21T15:53:26;2.90;;;1.07;;
4206;SDS011;2117;47.972;7.830;2022-09-21T15:55:54;2.10;;;1.00;;
4206;SDS011;2117;47.972;7.830;2022-09-21T15:58:32;2.40;;;1.13;;
4206;SDS011;2117;47.972;7.830;2022-09-21T16:01:01;2.60;;;1.03;;
4206;SDS011;2117;47.972;7.830;2022-09-21T16:03:35;1.67;;;0.90;;
4206;SDS011;2117;47.972;7.830;2022-09-21T16:06:16;5.07;;;1.10;;
4206;SDS011;2117;47.972;7.830;2022-09-21T16:08:52;1.93;;;0.90;;
4206;SDS011;2117;47.972;7.830;2022-09-21T16:14:12;3.60;;;1.40;;
4206;SDS011;2117;47.972;7.830;2022-09-21T16:22:27;2.97;;;1.00;;
4206;SDS011;2117;47.972;7.830;2022-09-21T16:25:38;2.73;;;1.50;;
4206;SDS011;2117;47.972;7.830;2022-09-21T16:35:57;3.00;;;1.57;;
4206;SDS011;2117;47.972;7.830;2022-09-21T16:38:22;1.97;;;1.10;;
4206;SDS011;2117;47.972;7.830;2022-09-21T16:40:48;4.50;;;0.93;;
4206;SDS011;2117;47.972;7.830;2022-09-21T16:43:15;7.63;;;1.27;;
4206;SDS011;2117;47.972;7.830;2022-09-21T16:45:41;2.70;;;0.93;;
4206;SDS011;2117;47.972;7.830;2022-09-21T16:48:08;2.07;;;1.13;;
4206;SDS011;2117;47.972;7.830;2022-09-21T16:50:35;2.10;;;1.20;;
4206;SDS011;2117;47.972;7.830;2022-09-21T16:53:01;2.40;;;1.23;;
4206;SDS011;2117;47.972;7.830;2022-09-21T16:55:26;2.23;;;1.30;;
4206;SDS011;2117;47.972;7.830;2022-09-21T16:57:52;1.70;;;0.90;;
4206;SDS011;2117;47.972;7.830;2022-09-21T17:00:17;2.27;;;0.90;;
4206;SDS011;2117;47.972;7.830;2022-09-21T17:02:44;2.90;;;1.00;;
4206;SDS011;2117;47.972;7.830;2022-09-21T17:05:10;2.37;;;0.90;;
4206;SDS011;2117;47.972;7.830;2022-09-21T17:07:47;2.83;;;0.80;;
4206;SDS011;2117;47.972;7.830;2022-09-21T17:10:17;2.40;;;1.50;;
4206;SDS011;2117;47.972;7.830;2022-09-21T17:12:44;16.33;;;3.83;;
4206;SDS011;2117;47.972;7.830;2022-09-21T17:15:11;14.33;;;2.30;;
4206;SDS011;2117;47.972;7.830;2022-09-21T17:17:37;13.27;;;1.63;;
4206;SDS011;2117;47.972;7.830;2022-09-21T17:20:23;3.13;;;1.10;;
4206;SDS011;2117;47.972;7.830;2022-09-21T17:22:59;3.13;;;1.20;;
4206;SDS011;2117;47.972;7.830;2022-09-21T17:25:27;2.60;;;0.83;;
4206;SDS011;2117;47.972;7.830;2022-09-21T17:27:53;2.27;;;1.00;;
4206;SDS011;2117;47.972;7.830;2022-09-21T17:30:26;1.83;;;1.00;;
4206;SDS011;2117;47.972;7.830;2022-09-21T17:32:52;2.77;;;1.30;;
4206;SDS011;2117;47.972;7.830;2022-09-21T17:35:28;2.27;;;1.30;;
4206;SDS011;2117;47.972;7.830;2022-09-21T17:37:56;3.17;;;1.20;;
4206;SDS011;2117;47.972;7.830;2022-09-21T17:40:22;1.70;;;1.00;;
4206;SDS011;2117;47.972;7.830;2022-09-21T17:42:49;1.83;;;1.00;;
4206;SDS011;2117;47.972;7.830;2022-09-21T17:45:25;1.73;;;1.10;;
4206;SDS011;2117;47.972;7.830;2022-09-21T17:48:04;2.23;;;1.10;;
4206;SDS011;2117;47.972;7.830;2022-09-21T17:50:36;2.60;;;1.20;;
4206;SDS011;2117;47.972;7.830;2022-09-21T17:53:02;4.93;;;1.17;;
4206;SDS011;2117;47.972;7.830;2022-09-21T17:55:49;2.43;;;1.00;;
4206;SDS011;2117;47.972;7.830;2022-09-21T18:01:31;3.17;;;1.30;;
4206;SDS011;2117;47.972;7.830;2022-09-21T18:04:00;2.40;;;1.27;;
4206;SDS011;2117;47.972;7.830;2022-09-21T18:06:27;3.67;;;1.80;;
4206;SDS011;2117;47.972;7.830;2022-09-21T18:08:53;4.20;;;1.57;;
4206;SDS011;2117;47.972;7.830;2022-09-21T18:16:30;3.30;;;1.70;;
4206;SDS011;2117;47.972;7.830;2022-09-21T18:19:21;4.97;;;1.67;;
4206;SDS011;2117;47.972;7.830;2022-09-21T18:21:57;4.00;;;2.40;;
4206;SDS011;2117;47.972;7.830;2022-09-21T18:24:49;10.60;;;1.90;;
4206;SDS011;2117;47.972;7.830;2022-09-21T18:27:17;3.43;;;1.33;;
4206;SDS011;2117;47.972;7.830;2022-09-21T18:29:44;2.27;;;1.40;;
4206;SDS011;2117;47.972;7.830;2022-09-21T18:40:39;2.80;;;1.40;;
4206;SDS011;2117;47.972;7.830;2022-09-21T18:46:24;5.50;;;1.70;;
4206;SDS011;2117;47.972;7.830;2022-09-21T18:51:47;3.30;;;1.73;;
4206;SDS011;2117;47.972;7.830;2022-09-21T18:54:22;8.17;;;1.90;;
4206;SDS011;2117;47.972;7.830;2022-09-21T18:56:51;2.73;;;1.70;;
4206;SDS011;2117;47.972;7.830;2022-09-21T18:59:17;4.67;;;1.30;;
4206;SDS011;2117;47.972;7.830;2022-09-21T19:01:43;8.03;;;1.93;;
4206;SDS011;2117;47.972;7.830;2022-09-21T19:04:10;3.60;;;1.60;;
4206;SDS011;2117;47.972;7.830;2022-09-21T19:06:57;2.90;;;1.53;;
4206;SDS011;2117;47.972;7.830;2022-09-21T19:15:27;2.47;;;1.67;;
4206;SDS011;2117;47.972;7.830;2022-09-21T19:21:12;3.70;;;1.60;;
4206;SDS011;2117;47.972;7.830;2022-09-21T19:23:39;3.03;;;1.43;;
4206;SDS011;2117;47.972;7.830;2022-09-21T19:26:24;4.03;;;1.37;;
4206;SDS011;2117;47.972;7.830;2022-09-21T19:29:25;3.43;;;1.50;;
4206;SDS011;2117;47.972;7.830;2022-09-21T19:32:09;2.90;;;1.67;;
4206;SDS011;2117;47.972;7.830;2022-09-21T19:34:46;2.23;;;1.30;;
4206;SDS011;2117;47.972;7.830;2022-09-21T19:37:12;4.00;;;2.50;;
4206;SDS011;2117;47.972;7.830;2022-09-21T19:39:38;8.70;;;3.37;;
4206;SDS011;2117;47.972;7.830;2022-09-21T19:44:40;7.33;;;3.90;;
4206;SDS011;2117;47.972;7.830;2022-09-21T19:47:23;11.33;;;5.13;;
4206;SDS011;2117;47.972;7.830;2022-09-21T19:49:53;8.93;;;5.00;;
4206;SDS011;2117;47.972;7.830;2022-09-21T19:52:34;10.90;;;3.70;;
4206;SDS011;2117;47.972;7.830;2022-09-21T19:55:00;6.83;;;3.30;;
4206;SDS011;2117;47.972;7.830;2022-09-21T19:57:44;6.33;;;3.27;;
4206;SDS011;2117;47.972;7.830;2022-09-21T20:00:29;5.20;;;3.57;;
4206;SDS011;2117;47.972;7.830;2022-09-21T20:03:08;8.40;;;4.40;;
4206;SDS011;2117;47.972;7.830;2022-09-21T20:06:11;4.90;;;3.43;;
4206;SDS011;2117;47.972;7.830;2022-09-21T20:09:31;3.60;;;2.33;;
4206;SDS011;2117;47.972;7.830;2022-09-21T20:11:43;3.47;;;1.93;;
4206;SDS011;2117;47.972;7.830;2022-09-21T20:17:00;2.83;;;1.70;;
4206;SDS011;2117;47.972;7.830;2022-09-21T20:22:12;3.70;;;2.00;;
4206;SDS011;2117;47.972;7.830;2022-09-21T20:30:11;1.70;;;1.20;;
4206;SDS011;2117;47.972;7.830;2022-09-21T20:32:38;2.83;;;1.60;;
4206;SDS011;2117;47.972;7.830;2022-09-21T20:35:09;3.13;;;1.70;;
4206;SDS011;2117;47.972;7.830;2022-09-21T20:37:42;3.80;;;1.63;;
4206;SDS011;2117;47.972;7.830;2022-09-21T20:40:08;2.50;;;2.00;;
4206;SDS011;2117;47.972;7.830;2022-09-21T20:42:35;4.70;;;1.67;;
4206;SDS011;2117;47.972;7.830;2022-09-21T20:45:02;6.43;;;1.60;;
4206;SDS011;2117;47.972;7.830;2022-09-21T20:47:29;3.40;;;1.90;;
4206;SDS011;2117;47.972;7.830;2022-09-21T20:49:55;2.93;;;1.70;;
4206;SDS011;2117;47.972;7.830;2022-09-21T20:52:20;3.47;;;1.47;;
4206;SDS011;2117;47.972;7.830;2022-09-21T20:54:47;3.57;;;1.60;;
4206;SDS011;2117;47.972;7.830;2022-09-21T20:57:13;4.00;;;1.97;;
4206;SDS011;2117;47.972;7.830;2022-09-21T20:59:38;5.90;;;2.50;;
4206;SDS011;2117;47.972;7.830;2022-09-21T21:02:04;4.40;;;2.20;;
4206;SDS011;2117;47.972;7.830;2022-09-21T21:04:31;4.27;;;2.90;;
4206;SDS011;2117;47.972;7.830;2022-09-21T21:06:57;6.20;;;2.90;;
4206;SDS011;2117;47.972;7.830;2022-09-21T21:09:23;6.40;;;3.50;;
4206;SDS011;2117;47.972;7.830;2022-09-21T21:11:50;6.60;;;4.27;;
4206;SDS011;2117;47.972;7.830;2022-09-21T21:14:16;6.60;;;3.83;;
4206;SDS011;2117;47.972;7.830;2022-09-21T21:16:41;7.30;;;3.20;;
4206;SDS011;2117;47.972;7.830;2022-09-21T21:19:07;7.73;;;3.10;;
4206;SDS011;2117;47.972;7.830;2022-09-21T21:21:33;5.27;;;3.13;;
4206;SDS011;2117;47.972;7.830;2022-09-21T21:23:59;4.43;;;2.87;;
4206;SDS011;2117;47.972;7.830;2022-09-21T21:26:43;7.50;;;2.97;;
4206;SDS011;2117;47.972;7.830;2022-09-21T21:29:08;5.83;;;3.10;;
4206;SDS011;2117;47.972;7.830;2022-09-21T21:31:34;5.13;;;2.47;;
4206;SDS011;2117;47.972;7.830;2022-09-21T21:34:00;3.33;;;1.90;;
4206;SDS011;2117;47.972;7.830;2022-09-21T21:36:25;5.30;;;2.40;;
4206;SDS011;2117;47.972;7.830;2022-09-21T21:38:51;2.70;;;1.73;;
4206;SDS011;2117;47.972;7.830;2022-09-21T21:41:16;3.17;;;1.70;;
4206;SDS011;2117;47.972;7.830;2022-09-21T21:43:42;2.70;;;2.03;;
4206;SDS011;2117;47.972;7.830;2022-09-21T21:46:08;2.83;;;1.90;;
4206;SDS011;2117;47.972;7.830;2022-09-21T21:48:35;2.33;;;1.70;;
4206;SDS011;2117;47.972;7.830;2022-09-21T21:51:02;2.00;;;1.47;;
4206;SDS011;2117;47.972;7.830;2022-09-21T21:53:36;4.87;;;1.77;;
4206;SDS011;2117;47.972;7.830;2022-09-21T21:56:07;3.67;;;1.87;;
4206;SDS011;2117;47.972;7.830;2022-09-21T21:58:37;4.27;;;2.13;;
4206;SDS011;2117;47.972;7.830;2022-09-21T22:01:07;6.63;;;1.70;;
4206;SDS011;2117;47.972;7.830;2022-09-21T22:03:34;2.27;;;1.47;;
4206;SDS011;2117;47.972;7.830;2022-09-21T22:06:01;2.80;;;1.17;;
4206;SDS011;2117;47.972;7.830;2022-09-21T22:08:28;1.97;;;1.30;;
4206;SDS011;2117;47.972;7.830;2022-09-21T22:10:54;4.73;;;1.23;;
4206;SDS011;2117;47.972;7.830;2022-09-21T22:13:20;3.53;;;1.00;;
4206;SDS011;2117;47.972;7.830;2022-09-21T22:15:47;2.20;;;1.27;;
4206;SDS011;2117;47.972;7.830;2022-09-21T22:18:14;2.87;;;0.93;;
4206;SDS011;2117;47.972;7.830;2022-09-21T22:20:40;1.90;;;1.00;;
4206;SDS011;2117;47.972;7.830;2022-09-21T22:23:06;1.60;;;1.10;;
4206;SDS011;2117;47.972;7.830;2022-09-21T22:25:33;1.83;;;0.97;;
4206;SDS011;2117;47.972;7.830;2022-09-21T22:27:58;1.40;;;0.90;;
